Time;durP1;ratioP1;P1;durP2;ratioP2;P2;SDS_P1;SDS_P2;PMS_P1;PMS_P2;Temp;Humidity;BMP_temperature;BMP_pressure;BME280_temperature;BME280_humidity;BME280_pressure;Samples;Min_cycle;Max_cycle;Signal;HPM_P1;HPM_P2
2023/04/10 00:00:02;;;;;;;11.50;8.90;;;-0.30;99.90;;;;;;4889548;29;20108;-63
2023/04/10 00:02:30;;;;;;;9.07;8.07;;;-0.30;99.90;;;;;;4890291;29;20056;-64
2023/04/10 00:04:59;;;;;;;11.98;8.77;;;-0.30;99.90;;;;;;4889083;29;20061;-63
2023/04/10 00:07:26;;;;;;;12.07;9.02;;;-0.40;99.90;;;;;;4888838;29;20052;-63
2023/04/10 00:09:53;;;;;;;15.65;8.40;;;-0.40;99.90;;;;;;4888751;29;20123;-66
2023/04/10 00:12:20;;;;;;;16.27;9.10;;;-0.50;99.90;;;;;;4890406;29;20052;-61
2023/04/10 00:14:47;;;;;;;12.82;9.50;;;-0.50;99.90;;;;;;4889737;29;20054;-61
2023/04/10 00:17:14;;;;;;;17.20;10.27;;;-0.50;99.90;;;;;;4890527;29;20049;-65
2023/04/10 00:19:41;;;;;;;15.13;9.57;;;-0.50;99.90;;;;;;4890410;29;20511;-62
2023/04/10 00:22:08;;;;;;;13.20;8.25;;;-0.50;99.90;;;;;;4890743;29;20059;-63
2023/04/10 00:24:34;;;;;;;12.18;9.70;;;-0.50;99.90;;;;;;4890802;29;20088;-62
2023/04/10 00:27:01;;;;;;;13.57;10.13;;;-0.50;99.90;;;;;;4891793;29;20097;-62
2023/04/10 00:29:28;;;;;;;15.45;10.60;;;-0.50;99.90;;;;;;4890270;29;20057;-62
2023/04/10 00:31:55;;;;;;;12.75;10.38;;;-0.50;99.90;;;;;;4887130;29;20464;-62
2023/04/10 00:34:23;;;;;;;12.32;9.43;;;-0.50;99.90;;;;;;4876702;29;20131;-64
2023/04/10 00:36:49;;;;;;;12.25;9.85;;;-0.50;99.90;;;;;;4884692;29;20222;-62
2023/04/10 00:39:16;;;;;;;11.85;9.27;;;-0.60;99.90;;;;;;4891133;29;20148;-63
2023/04/10 00:41:43;;;;;;;16.60;12.23;;;-0.60;99.90;;;;;;4890148;29;20451;-62
2023/04/10 00:44:10;;;;;;;15.30;10.73;;;-0.70;99.90;;;;;;4883181;29;20060;-64
2023/04/10 00:46:39;;;;;;;15.68;11.32;;;-0.60;99.90;;;;;;4889385;29;20052;-62
2023/04/10 00:49:08;;;;;;;13.68;9.65;;;-0.70;99.90;;;;;;4890327;29;20136;-62
2023/04/10 00:51:38;;;;;;;15.57;10.30;;;-0.70;99.90;;;;;;4887370;29;20052;-63
2023/04/10 00:54:05;;;;;;;10.85;8.80;;;-0.70;99.90;;;;;;4890505;29;20083;-62
2023/04/10 00:56:32;;;;;;;13.43;10.45;;;-0.70;99.90;;;;;;4891264;29;20495;-62
2023/04/10 00:58:59;;;;;;;14.38;10.43;;;-0.80;99.90;;;;;;4890547;29;20478;-63
2023/04/10 01:01:26;;;;;;;16.80;11.40;;;-0.80;99.90;;;;;;4889159;29;20076;-65
2023/04/10 01:03:55;;;;;;;15.80;9.43;;;-0.80;99.90;;;;;;4883519;29;20475;-62
2023/04/10 01:06:57;;;;;;;14.23;8.85;;;-0.90;99.90;;;;;;4889559;29;21314;-64
2023/04/10 01:09:38;;;;;;;13.97;9.83;;;-0.90;99.90;;;;;;4885610;29;20053;-62
2023/04/10 01:12:24;;;;;;;13.32;9.77;;;-0.90;99.90;;;;;;4885967;29;20052;-62
2023/04/10 01:15:07;;;;;;;16.48;11.27;;;-0.90;99.90;;;;;;4888960;29;20112;-62
2023/04/10 01:17:58;;;;;;;16.00;9.50;;;-0.90;99.90;;;;;;4889609;29;20100;-63
2023/04/10 01:20:29;;;;;;;19.60;10.88;;;-1.00;99.90;;;;;;4889251;29;20132;-64
2023/04/10 01:23:35;;;;;;;16.67;10.93;;;-0.90;99.90;;;;;;4888712;29;20048;-66
2023/04/10 01:26:04;;;;;;;24.75;10.43;;;-0.90;99.90;;;;;;4826007;29;20041;-64
2023/04/10 01:28:53;;;;;;;18.63;11.77;;;-0.90;99.90;;;;;;4867151;29;20073;-63
2023/04/10 01:31:43;;;;;;;22.10;12.18;;;-0.90;99.90;;;;;;4888242;29;20064;-62
2023/04/10 01:34:19;;;;;;;16.60;11.05;;;-0.90;99.90;;;;;;4884067;29;20109;-62
2023/04/10 01:37:14;;;;;;;18.25;10.60;;;-0.90;99.90;;;;;;4887290;29;20052;-64
2023/04/10 01:39:42;;;;;;;16.85;11.18;;;-1.00;99.90;;;;;;4873332;29;20059;-63
2023/04/10 01:42:12;;;;;;;16.83;11.55;;;-1.00;99.90;;;;;;4884047;29;20061;-62
2023/04/10 01:44:42;;;;;;;15.55;11.77;;;-0.90;99.90;;;;;;4888156;29;20075;-63
2023/04/10 01:47:14;;;;;;;13.88;11.32;;;-0.90;99.90;;;;;;4885487;29;20530;-64
2023/04/10 01:49:45;;;;;;;18.10;11.68;;;-1.00;99.90;;;;;;4886131;29;20475;-62
2023/04/10 01:52:14;;;;;;;17.75;12.77;;;-0.90;99.90;;;;;;4871124;29;20067;-62
2023/04/10 01:54:47;;;;;;;13.85;11.07;;;-0.90;99.90;;;;;;4886916;29;20133;-63
2023/04/10 01:57:21;;;;;;;18.35;13.55;;;-0.90;99.90;;;;;;4890039;29;20053;-63
2023/04/10 01:59:54;;;;;;;19.83;12.45;;;-0.90;99.90;;;;;;4876219;29;20086;-62
2023/04/10 02:02:21;;;;;;;14.65;11.80;;;-0.90;99.90;;;;;;4887142;29;20067;-62
2023/04/10 02:04:51;;;;;;;20.40;12.80;;;-1.00;99.90;;;;;;4887558;29;20051;-62
2023/04/10 02:07:28;;;;;;;17.85;12.82;;;-0.90;99.90;;;;;;4888383;29;21023;-62
2023/04/10 02:10:21;;;;;;;23.98;14.80;;;-0.90;99.90;;;;;;4886487;29;20421;-63
2023/04/10 02:12:54;;;;;;;16.70;12.68;;;-0.90;99.90;;;;;;4890851;29;20175;-63
2023/04/10 02:15:24;;;;;;;15.50;12.18;;;-0.90;99.90;;;;;;4886574;29;20135;-63
2023/04/10 02:17:51;;;;;;;19.25;13.32;;;-0.90;99.90;;;;;;4884982;29;20056;-63
2023/04/10 02:20:21;;;;;;;14.63;11.38;;;-0.90;99.90;;;;;;4886304;29;20053;-62
2023/04/10 02:22:48;;;;;;;20.90;12.77;;;-1.00;99.90;;;;;;4888003;29;20063;-61
2023/04/10 02:25:15;;;;;;;16.25;12.10;;;-1.00;99.90;;;;;;4888342;29;20535;-63
2023/04/10 02:27:42;;;;;;;15.60;12.73;;;-1.10;99.90;;;;;;4889802;29;20052;-61
2023/04/10 02:30:10;;;;;;;16.33;12.15;;;-1.10;99.90;;;;;;4875795;29;20112;-62
2023/04/10 02:32:37;;;;;;;17.40;12.48;;;-1.10;99.90;;;;;;4883992;29;20064;-62
2023/04/10 02:35:07;;;;;;;17.17;11.98;;;-1.20;99.90;;;;;;4884601;29;20048;-63
2023/04/10 02:37:36;;;;;;;17.15;12.05;;;-1.20;99.90;;;;;;4887758;29;20044;-63
2023/04/10 02:40:03;;;;;;;16.40;13.18;;;-1.20;99.90;;;;;;4879023;29;20379;-67
2023/04/10 02:42:40;;;;;;;18.70;13.35;;;-1.20;99.90;;;;;;4887133;29;20079;-63
2023/04/10 02:45:08;;;;;;;17.83;13.25;;;-1.20;99.90;;;;;;4884295;29;20142;-64
2023/04/10 02:47:39;;;;;;;18.23;12.55;;;-1.20;99.90;;;;;;4883283;29;20499;-64
2023/04/10 02:50:06;;;;;;;15.93;12.70;;;-1.20;99.90;;;;;;4886477;29;20083;-64
2023/04/10 02:52:36;;;;;;;20.77;13.77;;;-1.20;99.90;;;;;;4868787;29;20119;-65
2023/04/10 02:55:03;;;;;;;16.60;12.45;;;-1.20;99.90;;;;;;4874420;29;20049;-62
2023/04/10 02:57:34;;;;;;;15.63;12.10;;;-1.20;99.90;;;;;;4874939;29;20112;-66
2023/04/10 03:00:03;;;;;;;18.70;13.82;;;-1.20;99.90;;;;;;4881412;29;20467;-63
2023/04/10 03:02:48;;;;;;;16.20;13.43;;;-1.30;99.90;;;;;;4874586;29;20052;-65
2023/04/10 03:05:18;;;;;;;17.83;13.63;;;-1.30;99.90;;;;;;4887217;29;20079;-64
2023/04/10 03:07:45;;;;;;;19.92;13.82;;;-1.30;99.90;;;;;;4883374;29;20068;-62
2023/04/10 03:10:12;;;;;;;15.35;13.00;;;-1.30;99.90;;;;;;4867795;29;20063;-64
2023/04/10 03:12:39;;;;;;;17.42;12.63;;;-1.30;99.90;;;;;;4856900;29;20054;-63
2023/04/10 03:15:06;;;;;;;19.20;12.20;;;-1.30;99.90;;;;;;4869061;29;20053;-63
2023/04/10 03:17:33;;;;;;;17.40;12.95;;;-1.30;99.90;;;;;;4864498;29;20053;-67
2023/04/10 03:20:00;;;;;;;18.45;13.48;;;-1.40;99.90;;;;;;4863853;29;20052;-62
2023/04/10 03:22:31;;;;;;;16.98;12.75;;;-1.40;99.90;;;;;;4861227;29;20108;-63
2023/04/10 03:24:59;;;;;;;16.75;12.90;;;-1.40;99.90;;;;;;4873998;29;20053;-63
2023/04/10 03:27:26;;;;;;;16.95;13.93;;;-1.40;99.90;;;;;;4880956;29;20120;-64
2023/04/10 03:29:53;;;;;;;18.88;13.38;;;-1.30;99.90;;;;;;4881446;29;20503;-64
2023/04/10 03:32:19;;;;;;;16.48;13.13;;;-1.20;99.90;;;;;;4870832;29;20061;-65
2023/04/10 03:34:46;;;;;;;19.08;11.68;;;-1.20;99.90;;;;;;4868605;29;20053;-65
2023/04/10 03:37:13;;;;;;;16.33;13.30;;;-1.20;99.90;;;;;;4881831;29;20158;-64
2023/04/10 03:39:40;;;;;;;17.63;12.20;;;-1.20;99.90;;;;;;4879301;29;20517;-64
2023/04/10 03:42:07;;;;;;;16.30;12.50;;;-1.20;99.90;;;;;;4866543;29;20091;-62
2023/04/10 03:44:34;;;;;;;17.05;12.82;;;-1.20;99.90;;;;;;4867904;29;20077;-66
2023/04/10 03:47:01;;;;;;;19.98;11.75;;;-1.30;99.90;;;;;;4882515;29;20069;-61
2023/04/10 03:49:29;;;;;;;13.93;10.80;;;-1.30;99.90;;;;;;4866044;29;20041;-63
2023/04/10 03:52:02;;;;;;;19.65;13.43;;;-1.30;99.90;;;;;;4881020;29;20057;-63
2023/04/10 03:54:29;;;;;;;15.98;11.68;;;-1.30;99.90;;;;;;4864801;29;20383;-62
2023/04/10 03:56:57;;;;;;;14.30;11.00;;;-1.30;99.90;;;;;;4868294;29;20155;-65
2023/04/10 03:59:25;;;;;;;17.48;11.50;;;-1.40;99.90;;;;;;4880847;29;20397;-66
2023/04/10 04:02:08;;;;;;;21.38;12.13;;;-1.30;99.90;;;;;;4862485;29;20144;-62
2023/04/10 04:04:35;;;;;;;22.00;13.15;;;-1.40;99.90;;;;;;4877315;29;20463;-63
2023/04/10 04:07:21;;;;;;;13.23;9.68;;;-1.40;99.90;;;;;;4871118;29;20068;-62
2023/04/10 04:10:08;;;;;;;15.45;11.73;;;-1.40;99.90;;;;;;4879384;29;22450;-61
2023/04/10 04:12:55;;;;;;;17.27;10.95;;;-1.40;99.90;;;;;;4862253;29;20467;-62
2023/04/10 04:15:36;;;;;;;15.50;12.05;;;-1.30;99.90;;;;;;4885146;29;20156;-64
2023/04/10 04:18:15;;;;;;;17.05;10.13;;;-1.40;99.90;;;;;;4878111;29;20049;-64
2023/04/10 04:20:47;;;;;;;17.50;10.82;;;-1.30;99.90;;;;;;4887331;29;20080;-63
2023/04/10 04:23:40;;;;;;;17.05;12.05;;;-1.30;99.90;;;;;;4866582;29;20060;-62
2023/04/10 04:26:29;;;;;;;15.50;11.88;;;-1.20;99.90;;;;;;4884423;29;20131;-62
2023/04/10 04:29:12;;;;;;;17.52;11.38;;;-1.10;99.90;;;;;;4882269;29;20056;-64
2023/04/10 04:32:01;;;;;;;24.15;13.13;;;-1.10;99.90;;;;;;4865337;29;20106;-62
2023/04/10 04:34:38;;;;;;;18.63;12.70;;;-1.10;99.90;;;;;;4886759;29;20446;-62
2023/04/10 04:37:11;;;;;;;17.52;12.05;;;-1.00;99.90;;;;;;4888654;29;20064;-63
2023/04/10 04:39:50;;;;;;;14.82;12.30;;;-1.00;99.90;;;;;;4885847;29;20190;-62
2023/04/10 04:42:23;;;;;;;23.98;12.98;;;-1.00;99.90;;;;;;4886812;29;20574;-62
2023/04/10 04:45:10;;;;;;;18.30;12.65;;;-1.00;99.90;;;;;;4859901;29;20516;-62
2023/04/10 04:47:55;;;;;;;31.88;13.05;;;-1.00;99.90;;;;;;4888782;29;20139;-64
2023/04/10 04:50:32;;;;;;;20.38;12.10;;;-1.00;99.90;;;;;;4888745;29;20044;-62
2023/04/10 04:53:15;;;;;;;19.40;10.82;;;-1.00;99.90;;;;;;4873065;29;20061;-66
2023/04/10 04:56:01;;;;;;;26.33;13.43;;;-1.00;99.90;;;;;;4886629;29;20056;-63
2023/04/10 04:58:54;;;;;;;22.35;12.30;;;-0.90;99.90;;;;;;4857922;29;20049;-62
2023/04/10 05:01:36;;;;;;;25.63;13.27;;;-0.90;99.90;;;;;;4891759;29;20071;-64
2023/04/10 05:04:06;;;;;;;22.27;14.40;;;-0.90;99.90;;;;;;4887794;29;20128;-62
2023/04/10 05:06:52;;;;;;;19.52;12.35;;;-0.80;99.90;;;;;;4888790;29;20063;-63
2023/04/10 05:09:37;;;;;;;23.90;14.73;;;-0.80;99.90;;;;;;4889573;29;20472;-63
2023/04/10 05:12:18;;;;;;;21.23;12.02;;;-0.80;99.90;;;;;;4886361;29;20309;-62
2023/04/10 05:15:06;;;;;;;20.67;11.70;;;-0.80;99.90;;;;;;4888398;29;20555;-63
2023/04/10 05:17:52;;;;;;;15.82;12.70;;;-0.80;99.90;;;;;;4884006;29;20052;-62
2023/04/10 05:20:46;;;;;;;16.50;11.60;;;-0.70;99.90;;;;;;4858664;29;20049;-66
2023/04/10 05:23:31;;;;;;;17.58;12.15;;;-0.60;99.90;;;;;;4887782;29;20075;-64
2023/04/10 05:26:13;;;;;;;24.48;13.48;;;-0.50;99.90;;;;;;4887421;29;20052;-63
2023/04/10 05:28:49;;;;;;;17.70;12.93;;;-0.40;99.90;;;;;;4882037;29;20796;-63
2023/04/10 05:31:36;;;;;;;16.55;12.40;;;-0.40;99.90;;;;;;4891963;29;20062;-63
2023/04/10 05:34:13;;;;;;;21.17;12.55;;;-0.30;99.90;;;;;;4886673;29;20131;-65
2023/04/10 05:36:59;;;;;;;19.77;12.00;;;-0.20;99.90;;;;;;4890817;29;20064;-62
2023/04/10 05:39:46;;;;;;;26.90;13.05;;;-0.10;99.90;;;;;;4882641;29;20084;-63
2023/04/10 05:42:25;;;;;;;17.65;12.07;;;0.00;99.90;;;;;;4884180;29;20304;-65
2023/04/10 05:45:14;;;;;;;20.50;13.20;;;0.10;99.90;;;;;;4876115;29;20093;-62
2023/04/10 05:48:01;;;;;;;19.73;12.48;;;0.20;99.90;;;;;;4879242;29;20084;-64
2023/04/10 05:50:40;;;;;;;18.45;11.35;;;0.30;99.90;;;;;;4881973;29;20082;-63
2023/04/10 05:53:31;;;;;;;17.27;13.10;;;0.40;99.90;;;;;;4890497;29;20088;-67
2023/04/10 05:56:22;;;;;;;20.45;11.32;;;0.50;99.90;;;;;;4883680;29;20406;-64
2023/04/10 05:59:08;;;;;;;18.38;9.48;;;0.70;99.90;;;;;;4887006;29;20591;-64
2023/04/10 06:01:56;;;;;;;24.58;10.18;;;0.80;99.90;;;;;;4871386;29;20048;-62
2023/04/10 06:04:23;;;;;;;14.18;8.90;;;0.90;99.90;;;;;;4879723;29;20045;-63
2023/04/10 06:06:54;;;;;;;18.63;8.32;;;1.00;99.90;;;;;;4877756;29;20048;-63
2023/04/10 06:09:21;;;;;;;11.60;7.63;;;1.10;99.90;;;;;;4872493;29;20049;-62
2023/04/10 06:11:47;;;;;;;9.13;6.13;;;1.20;99.90;;;;;;4887938;29;20064;-63
2023/04/10 06:14:18;;;;;;;12.77;6.60;;;1.30;99.90;;;;;;4869919;29;20554;-63
2023/04/10 06:16:45;;;;;;;7.13;6.18;;;1.30;99.90;;;;;;4886015;29;20578;-61
2023/04/10 06:19:13;;;;;;;7.35;6.18;;;1.40;99.90;;;;;;4886054;29;20060;-62
2023/04/10 06:21:40;;;;;;;13.88;7.53;;;1.50;99.90;;;;;;4887327;29;20049;-65
2023/04/10 06:24:07;;;;;;;19.42;7.88;;;1.60;99.90;;;;;;4886532;29;20051;-62
2023/04/10 06:26:37;;;;;;;10.43;5.93;;;1.80;99.90;;;;;;4886443;29;20167;-62
2023/04/10 06:29:04;;;;;;;10.00;6.65;;;1.90;99.90;;;;;;4892207;29;20052;-63
2023/04/10 06:31:33;;;;;;;9.75;7.80;;;2.00;99.90;;;;;;4885298;29;20139;-61
2023/04/10 06:34:00;;;;;;;15.90;6.70;;;2.10;99.90;;;;;;4885424;29;20487;-62
2023/04/10 06:36:27;;;;;;;16.23;7.40;;;2.20;99.90;;;;;;4870359;29;20561;-63
2023/04/10 06:39:01;;;;;;;16.88;7.88;;;2.30;99.90;;;;;;4871536;29;20628;-63
2023/04/10 06:41:28;;;;;;;11.40;8.40;;;2.40;99.90;;;;;;4884885;29;20389;-63
2023/04/10 06:44:05;;;;;;;9.80;7.25;;;2.50;99.90;;;;;;4870174;29;20045;-63
2023/04/10 06:46:31;;;;;;;10.68;7.30;;;2.70;99.90;;;;;;4887556;29;20062;-62
2023/04/10 06:48:58;;;;;;;16.85;7.68;;;2.80;99.90;;;;;;4884881;29;20212;-62
2023/04/10 06:51:26;;;;;;;8.50;5.32;;;2.90;99.90;;;;;;4886470;29;20048;-63
2023/04/10 06:53:53;;;;;;;11.27;6.00;;;3.00;99.90;;;;;;4889249;29;20052;-62
2023/04/10 06:56:20;;;;;;;7.97;7.18;;;3.10;99.90;;;;;;4887104;29;20179;-65
2023/04/10 06:58:47;;;;;;;10.05;6.18;;;3.20;99.90;;;;;;4868876;29;20053;-63
2023/04/10 07:01:16;;;;;;;7.55;6.20;;;3.30;99.90;;;;;;4886905;29;20056;-60
2023/04/10 07:03:43;;;;;;;18.25;7.88;;;3.40;99.90;;;;;;4887777;29;20116;-61
2023/04/10 07:06:11;;;;;;;14.25;6.85;;;3.60;99.90;;;;;;4884870;29;20045;-60
2023/04/10 07:08:37;;;;;;;12.15;5.80;;;3.70;99.90;;;;;;4888278;29;20056;-64
2023/04/10 07:11:05;;;;;;;8.15;5.88;;;3.80;99.90;;;;;;4886435;29;20079;-60
2023/04/10 07:13:31;;;;;;;7.97;5.53;;;3.90;99.90;;;;;;4887301;29;20411;-62
2023/04/10 07:15:58;;;;;;;7.97;4.82;;;4.00;99.90;;;;;;4888808;29;20333;-63
2023/04/10 07:18:25;;;;;;;7.65;4.20;;;4.00;99.90;;;;;;4886907;29;20052;-62
2023/04/10 07:20:52;;;;;;;11.95;6.28;;;4.10;99.90;;;;;;4887981;29;20104;-61
2023/04/10 07:23:20;;;;;;;10.77;4.18;;;4.20;99.90;;;;;;4887544;29;20163;-62
2023/04/10 07:25:46;;;;;;;7.38;6.05;;;4.30;99.90;;;;;;4887900;29;20508;-61
2023/04/10 07:28:13;;;;;;;5.65;4.80;;;4.50;99.90;;;;;;4884346;29;20056;-61
2023/04/10 07:30:40;;;;;;;6.35;4.65;;;4.60;99.90;;;;;;4890625;29;20064;-61
2023/04/10 07:33:07;;;;;;;3.78;3.40;;;4.80;99.90;;;;;;4886449;29;20048;-60
2023/04/10 07:35:35;;;;;;;7.03;4.45;;;4.90;99.90;;;;;;4888330;29;20055;-61
2023/04/10 07:38:03;;;;;;;3.75;3.25;;;5.00;99.90;;;;;;4885471;29;20414;-61
2023/04/10 07:40:30;;;;;;;5.93;5.30;;;5.10;99.90;;;;;;4885468;29;20088;-62
2023/04/10 07:42:57;;;;;;;4.93;4.40;;;5.20;99.90;;;;;;4887143;29;20063;-61
2023/04/10 07:45:24;;;;;;;3.15;2.58;;;5.40;99.90;;;;;;4887725;29;20048;-61
2023/04/10 07:47:50;;;;;;;5.00;2.85;;;5.50;99.90;;;;;;4883147;29;20060;-62
2023/04/10 07:50:17;;;;;;;3.08;2.50;;;5.50;99.90;;;;;;4888431;29;20135;-61
2023/04/10 07:52:44;;;;;;;3.05;2.10;;;5.70;99.90;;;;;;4893763;29;20423;-63
2023/04/10 07:55:11;;;;;;;2.45;2.25;;;5.80;99.90;;;;;;4890807;29;20057;-61
2023/04/10 07:57:38;;;;;;;3.33;1.98;;;5.90;99.90;;;;;;4888785;29;20048;-61
2023/04/10 08:00:08;;;;;;;1.53;1.43;;;6.10;99.90;;;;;;4887038;29;20510;-62
2023/04/10 08:02:41;;;;;;;2.78;1.95;;;6.20;99.90;;;;;;4890432;29;20376;-63
2023/04/10 08:05:08;;;;;;;2.75;1.95;;;6.30;99.90;;;;;;4888310;29;20152;-62
2023/04/10 08:07:36;;;;;;;2.20;1.80;;;6.40;99.90;;;;;;4887984;29;20061;-61
2023/04/10 08:10:03;;;;;;;1.70;1.60;;;6.50;99.90;;;;;;4886272;29;20059;-61
2023/04/10 08:12:32;;;;;;;5.80;1.75;;;6.60;99.90;;;;;;4889099;29;20434;-62
2023/04/10 08:14:59;;;;;;;5.95;2.40;;;6.80;99.90;;;;;;4891501;29;20529;-64
2023/04/10 08:17:26;;;;;;;1.73;1.50;;;6.90;99.90;;;;;;4890658;29;20120;-66
2023/04/10 08:19:53;;;;;;;5.05;2.60;;;7.00;99.90;;;;;;4890224;29;21289;-64
2023/04/10 08:22:20;;;;;;;4.57;1.98;;;7.10;99.90;;;;;;4890483;29;20427;-65
2023/04/10 08:24:47;;;;;;;2.38;1.70;;;7.10;99.90;;;;;;4896402;29;20067;-65
2023/04/10 08:27:15;;;;;;;2.08;1.67;;;7.20;99.90;;;;;;4891711;29;20060;-61
2023/04/10 08:29:42;;;;;;;7.70;1.90;;;7.40;99.90;;;;;;4888088;29;20139;-63
2023/04/10 08:32:09;;;;;;;10.07;2.10;;;7.50;99.90;;;;;;4889761;29;20045;-61
2023/04/10 08:34:36;;;;;;;2.15;1.48;;;7.60;99.90;;;;;;4891497;29;20147;-63
2023/04/10 08:37:08;;;;;;;2.80;2.45;;;7.70;99.90;;;;;;4888391;29;20051;-63
2023/04/10 08:39:38;;;;;;;4.53;1.63;;;7.70;99.90;;;;;;4888673;29;20415;-64
2023/04/10 08:42:05;;;;;;;2.35;1.95;;;7.80;99.90;;;;;;4889933;29;20049;-62
2023/04/10 08:44:34;;;;;;;2.05;1.73;;;7.80;99.90;;;;;;4890799;29;20052;-62
2023/04/10 08:47:02;;;;;;;5.82;2.25;;;7.90;99.90;;;;;;4888769;29;20547;-63
2023/04/10 08:49:55;;;;;;;8.05;3.75;;;8.00;99.90;;;;;;4891713;29;20053;-63
2023/04/10 08:52:24;;;;;;;9.57;5.28;;;7.90;99.90;;;;;;4891700;29;20099;-61
2023/04/10 08:54:54;;;;;;;7.93;5.00;;;7.80;99.90;;;;;;4890708;29;20131;-61
2023/04/10 08:57:21;;;;;;;;;;;7.70;99.90;;;;;;4891115;29;20054;-64
2023/04/10 08:59:52;;;;;;;6.65;4.72;;;7.70;99.90;;;;;;4890688;29;19970;-61
2023/04/10 09:02:20;;;;;;;6.95;6.25;;;7.70;99.90;;;;;;4885642;29;20072;-62
2023/04/10 09:04:53;;;;;;;6.85;5.35;;;7.50;99.90;;;;;;4890395;29;20075;-64
2023/04/10 09:07:24;;;;;;;5.57;5.07;;;7.40;99.90;;;;;;4889159;29;20112;-61
2023/04/10 09:09:51;;;;;;;8.80;6.15;;;7.30;99.90;;;;;;4888001;29;20049;-61
2023/04/10 09:12:18;;;;;;;10.75;6.15;;;7.30;99.90;;;;;;4889345;29;20108;-62
2023/04/10 09:14:47;;;;;;;6.72;6.00;;;7.30;99.90;;;;;;4891946;29;20052;-68
2023/04/10 09:17:22;;;;;;;6.70;5.43;;;7.30;99.90;;;;;;4889389;29;20057;-62
2023/04/10 09:19:54;;;;;;;5.90;5.38;;;7.20;99.90;;;;;;4886612;29;20083;-62
2023/04/10 09:22:32;;;;;;;6.13;5.32;;;7.10;99.90;;;;;;4889578;29;20053;-62
2023/04/10 09:25:00;;;;;;;10.43;5.30;;;7.00;99.90;;;;;;4894197;29;20058;-62
2023/04/10 09:27:32;;;;;;;8.10;4.95;;;7.10;99.90;;;;;;4874550;29;20068;-65
2023/04/10 09:30:00;;;;;;;7.70;6.10;;;7.20;99.90;;;;;;4886367;29;20076;-65
2023/04/10 09:32:36;;;;;;;5.57;5.07;;;7.20;99.90;;;;;;4891549;29;20152;-62
2023/04/10 09:35:04;;;;;;;12.43;6.47;;;7.20;99.90;;;;;;4887138;29;21179;-61
2023/04/10 09:37:32;;;;;;;7.82;6.05;;;7.20;99.90;;;;;;4892321;29;20585;-64
2023/04/10 09:39:59;;;;;;;5.95;5.32;;;7.30;99.90;;;;;;4889295;29;20053;-62
2023/04/10 09:42:35;;;;;;;6.05;4.97;;;7.40;99.90;;;;;;4889422;29;20052;-64
2023/04/10 09:45:03;;;;;;;6.05;4.88;;;7.40;99.90;;;;;;4886534;29;20052;-64
2023/04/10 09:47:30;;;;;;;5.80;4.38;;;7.50;99.90;;;;;;4886494;29;20052;-65
2023/04/10 09:50:01;;;;;;;6.97;5.20;;;7.60;99.90;;;;;;4885109;29;20055;-62
2023/04/10 09:52:37;;;;;;;5.95;5.38;;;7.60;99.90;;;;;;4887545;29;20497;-62
2023/04/10 09:55:08;;;;;;;6.70;4.47;;;7.70;99.90;;;;;;4886548;29;20487;-65
2023/04/10 09:57:35;;;;;;;5.22;4.45;;;7.70;99.90;;;;;;4889462;29;20075;-62
2023/04/10 10:00:05;;;;;;;5.22;4.53;;;7.70;99.90;;;;;;4888327;29;20514;-65
2023/04/10 10:02:37;;;;;;;6.38;5.45;;;7.80;99.90;;;;;;4888858;29;20147;-67
2023/04/10 10:05:06;;;;;;;8.23;4.93;;;7.80;99.90;;;;;;4890053;29;20104;-64
2023/04/10 10:07:34;;;;;;;5.70;3.97;;;7.70;99.90;;;;;;4886470;29;20071;-63
2023/04/10 10:10:02;;;;;;;6.55;4.88;;;7.80;99.90;;;;;;4888738;29;20511;-63
2023/04/10 10:12:46;;;;;;;5.25;4.15;;;7.90;99.90;;;;;;4888740;29;20079;-66
2023/04/10 10:15:50;;;;;;;5.85;4.93;;;8.00;99.90;;;;;;4887175;29;20533;-60
2023/04/10 10:18:35;;;;;;;4.43;4.03;;;8.10;99.90;;;;;;4887484;29;20056;-63
2023/04/10 10:21:03;;;;;;;5.28;4.00;;;8.20;99.90;;;;;;4887145;29;20495;-62
2023/04/10 10:23:32;;;;;;;4.50;3.42;;;8.30;99.90;;;;;;4888817;29;20048;-62
2023/04/10 10:26:00;;;;;;;4.82;3.80;;;8.50;99.90;;;;;;4885962;29;20127;-61
2023/04/10 10:28:31;;;;;;;4.18;3.67;;;8.30;99.90;;;;;;4886583;29;20048;-66
2023/04/10 10:30:59;;;;;;;4.90;3.90;;;8.30;99.90;;;;;;4883344;29;20048;-62
2023/04/10 10:33:28;;;;;;;6.43;3.92;;;8.30;99.90;;;;;;4889448;29;20129;-62
2023/04/10 10:35:59;;;;;;;5.55;3.65;;;8.30;99.90;;;;;;4884451;29;20483;-61
2023/04/10 10:38:27;;;;;;;6.72;4.57;;;8.40;99.90;;;;;;4891592;29;20056;-64
2023/04/10 10:41:15;;;;;;;5.30;3.75;;;8.60;99.90;;;;;;4887453;29;20048;-62
2023/04/10 10:44:10;;;;;;;5.93;4.18;;;8.50;99.90;;;;;;4887145;29;20048;-63
2023/04/10 10:46:48;;;;;;;5.05;3.38;;;8.80;99.90;;;;;;4886553;29;20207;-62
2023/04/10 10:49:15;;;;;;;4.35;3.92;;;8.90;99.90;;;;;;4889203;29;20357;-62
2023/04/10 10:51:47;;;;;;;6.18;3.97;;;9.10;99.90;;;;;;4888829;29;20083;-66
2023/04/10 10:54:34;;;;;;;5.82;4.45;;;9.30;99.90;;;;;;4888375;29;20052;-64
2023/04/10 10:57:04;;;;;;;7.40;4.18;;;9.40;99.90;;;;;;4888733;29;20054;-63
2023/04/10 10:59:54;;;;;;;4.10;3.50;;;9.50;99.90;;;;;;4888285;29;20049;-63
2023/04/10 11:02:22;;;;;;;5.63;4.38;;;9.50;99.90;;;;;;4878146;29;20143;-62
2023/04/10 11:04:49;;;;;;;5.10;3.67;;;9.40;99.90;;;;;;4889217;29;20048;-63
2023/04/10 11:07:17;;;;;;;6.47;4.18;;;9.30;99.90;;;;;;4888066;29;20351;-62
2023/04/10 11:09:48;;;;;;;4.40;3.70;;;9.20;99.90;;;;;;4889371;29;20087;-61
2023/04/10 11:12:17;;;;;;;5.03;3.40;;;9.30;99.90;;;;;;4884059;29;20055;-63
2023/04/10 11:14:59;;;;;;;4.35;3.63;;;9.30;99.90;;;;;;4888787;29;20140;-66
2023/04/10 11:17:45;;;;;;;4.10;3.70;;;9.30;99.90;;;;;;4886432;29;20048;-62
2023/04/10 11:20:12;;;;;;;4.68;4.13;;;9.30;99.90;;;;;;4885275;29;20054;-62
2023/04/10 11:23:10;;;;;;;5.35;3.45;;;9.50;99.90;;;;;;4884418;29;20064;-62
2023/04/10 11:25:51;;;;;;;7.15;4.30;;;9.30;99.90;;;;;;4893508;29;20061;-65
2023/04/10 11:28:38;;;;;;;7.97;4.28;;;9.40;99.90;;;;;;4886314;29;20076;-62
2023/04/10 11:31:21;;;;;;;6.50;3.88;;;9.30;99.90;;;;;;4889009;29;20044;-61
2023/04/10 11:34:00;;;;;;;5.25;4.22;;;9.40;99.90;;;;;;4886383;29;20064;-62
2023/04/10 11:36:27;;;;;;;8.55;4.00;;;9.40;99.90;;;;;;4881911;29;20471;-63
2023/04/10 11:39:13;;;;;;;4.93;4.10;;;9.30;99.90;;;;;;4890768;29;20404;-62
2023/04/10 11:41:42;;;;;;;8.50;4.35;;;9.30;99.90;;;;;;4886200;29;20100;-63
2023/04/10 11:44:11;;;;;;;5.40;3.40;;;9.40;99.90;;;;;;4886454;29;20060;-62
2023/04/10 11:46:40;;;;;;;13.43;4.53;;;9.50;99.90;;;;;;4891011;29;20052;-64
2023/04/10 11:49:09;;;;;;;4.05;3.65;;;9.60;99.90;;;;;;4892769;29;20059;-61
2023/04/10 11:51:39;;;;;;;6.65;3.17;;;9.70;99.90;;;;;;4892097;29;20049;-63
2023/04/10 11:54:07;;;;;;;5.75;3.53;;;9.80;99.90;;;;;;4890650;29;20536;-63
2023/04/10 11:56:35;;;;;;;7.70;3.58;;;9.90;99.90;;;;;;4890581;29;20053;-63
2023/04/10 11:59:06;;;;;;;16.45;3.22;;;10.00;99.90;;;;;;4890892;29;20083;-61
2023/04/10 12:01:33;;;;;;;3.97;2.90;;;9.90;99.90;;;;;;4897258;29;20056;-62
2023/04/10 12:04:00;;;;;;;4.20;3.55;;;10.00;99.90;;;;;;4876210;29;20057;-62
2023/04/10 12:06:28;;;;;;;4.93;3.05;;;10.00;99.90;;;;;;4895514;29;20087;-66
2023/04/10 12:08:55;;;;;;;6.20;3.92;;;9.90;99.90;;;;;;4893607;29;20048;-61
2023/04/10 12:11:27;;;;;;;7.78;3.40;;;10.10;99.90;;;;;;4893909;29;20056;-63
2023/04/10 12:13:55;;;;;;;3.28;2.92;;;10.10;99.90;;;;;;4889564;29;20575;-62
2023/04/10 12:16:25;;;;;;;6.53;3.53;;;9.90;99.90;;;;;;4891645;29;20139;-64
2023/04/10 12:18:52;;;;;;;13.10;4.55;;;10.00;99.90;;;;;;4891515;29;20072;-62
2023/04/10 12:21:20;;;;;;;4.25;2.83;;;9.90;99.90;;;;;;4891326;29;20168;-64
2023/04/10 12:23:47;;;;;;;10.18;4.38;;;10.10;99.90;;;;;;4891062;29;20135;-61
2023/04/10 12:26:15;;;;;;;3.90;3.50;;;10.30;99.90;;;;;;4889360;29;20049;-68
2023/04/10 12:28:54;;;;;;;2.70;2.17;;;10.40;99.90;;;;;;4893639;29;20053;-62
2023/04/10 12:31:28;;;;;;;3.97;2.97;;;10.10;99.90;;;;;;4890859;29;20108;-64
2023/04/10 12:34:00;;;;;;;3.33;2.63;;;10.10;99.90;;;;;;4887946;29;20045;-62
2023/04/10 12:36:28;;;;;;;3.63;2.53;;;10.20;99.90;;;;;;4891255;29;20144;-65
2023/04/10 12:38:57;;;;;;;5.05;3.95;;;10.20;99.90;;;;;;4890873;29;20143;-65
2023/04/10 12:41:30;;;;;;;6.95;3.03;;;10.20;99.90;;;;;;4891390;29;20460;-64
2023/04/10 12:44:13;;;;;;;4.63;3.85;;;10.40;99.90;;;;;;4891102;29;20045;-65
2023/04/10 12:46:41;;;;;;;7.38;2.60;;;10.40;99.90;;;;;;4893318;29;20571;-63
2023/04/10 12:49:10;;;;;;;5.35;3.00;;;10.30;99.90;;;;;;4892346;29;20059;-63
2023/04/10 12:51:49;;;;;;;9.02;3.00;;;10.50;99.90;;;;;;4889836;29;20064;-62
2023/04/10 12:54:29;;;;;;;6.68;3.08;;;10.70;99.90;;;;;;4888597;29;20054;-62
2023/04/10 12:56:56;;;;;;;3.67;2.95;;;10.60;99.90;;;;;;4889878;29;20049;-63
2023/04/10 12:59:25;;;;;;;5.55;3.60;;;10.50;99.90;;;;;;4890185;29;20155;-66
2023/04/10 13:01:52;;;;;;;18.35;5.22;;;10.80;99.90;;;;;;4892285;29;20049;-62
2023/04/10 13:04:19;;;;;;;7.43;4.70;;;10.90;99.90;;;;;;4891235;29;20811;-63
2023/04/10 13:06:47;;;;;;;5.88;3.17;;;11.00;99.90;;;;;;4890804;29;20151;-63
2023/04/10 13:09:16;;;;;;;6.95;3.05;;;11.10;99.90;;;;;;4891417;29;20059;-64